createdAt,value
2023-03-29T00:00:15.847Z,1.39
2023-03-29T00:02:49.106Z,1.39
2023-03-29T00:05:25.516Z,1.35
2023-03-29T00:07:54.486Z,1.39
2023-03-29T00:10:24.298Z,1.27
2023-03-29T00:12:53.562Z,1.34
2023-03-29T00:15:21.788Z,1.31
2023-03-29T00:17:51.143Z,1.26
2023-03-29T00:20:19.462Z,1.27
2023-03-29T00:22:48.502Z,1.26
2023-03-29T00:25:17.558Z,1.26
2023-03-29T00:27:46.238Z,1.27
2023-03-29T00:30:15.511Z,1.21
2023-03-29T00:32:46.632Z,1.19
2023-03-29T00:35:20.029Z,1.21
2023-03-29T00:37:51.134Z,1.14
2023-03-29T00:40:19.842Z,1.10
2023-03-29T00:42:51.353Z,1.11
2023-03-29T00:45:27.041Z,1.20
2023-03-29T00:48:00.279Z,1.19
2023-03-29T00:50:38.080Z,1.21
2023-03-29T00:53:12.531Z,1.33
2023-03-29T00:55:43.801Z,1.45
2023-03-29T00:58:13.998Z,1.09
2023-03-29T01:00:50.002Z,0.95
2023-03-29T01:03:25.232Z,1.02
2023-03-29T01:05:57.358Z,1.09
2023-03-29T01:08:31.896Z,1.13
2023-03-29T01:11:09.823Z,1.24
2023-03-29T01:14:00.577Z,1.13
2023-03-29T01:16:35.526Z,1.19
2023-03-29T01:19:05.434Z,1.11
2023-03-29T01:21:44.614Z,1.08
2023-03-29T01:24:25.597Z,1.06
2023-03-29T01:27:14.026Z,0.88
2023-03-29T01:29:51.281Z,0.83
2023-03-29T01:32:42.930Z,0.92
2023-03-29T01:35:17.693Z,0.92
2023-03-29T01:37:49.912Z,0.82
2023-03-29T01:40:18.034Z,0.68
2023-03-29T01:43:08.634Z,0.63
2023-03-29T01:45:53.761Z,0.61
2023-03-29T01:48:27.862Z,0.61
2023-03-29T01:51:05.494Z,0.63
2023-03-29T01:54:11.935Z,0.72
2023-03-29T01:56:42.389Z,0.84
2023-03-29T01:59:18.798Z,0.68
2023-03-29T02:01:53.095Z,0.72
2023-03-29T02:04:25.735Z,0.70
2023-03-29T02:06:54.408Z,0.69
2023-03-29T02:09:22.878Z,0.69
2023-03-29T02:11:51.756Z,0.71
2023-03-29T02:14:24.956Z,0.78
2023-03-29T02:16:53.752Z,0.82
2023-03-29T02:19:24.182Z,0.83
2023-03-29T02:22:04.196Z,0.80
2023-03-29T02:24:33.365Z,0.69
2023-03-29T02:27:06.885Z,0.78
2023-03-29T02:29:36.941Z,0.72
2023-03-29T02:32:21.383Z,0.68
2023-03-29T02:35:02.129Z,0.74
2023-03-29T02:37:34.669Z,0.81
2023-03-29T02:40:12.748Z,0.72
2023-03-29T02:42:41.750Z,0.81
2023-03-29T02:45:12.318Z,0.68
2023-03-29T02:47:46.078Z,0.70
2023-03-29T02:50:14.548Z,0.62
2023-03-29T02:52:47.310Z,0.57
2023-03-29T02:55:16.601Z,0.61
2023-03-29T02:57:45.747Z,0.68
2023-03-29T03:00:20.247Z,0.67
2023-03-29T03:02:48.983Z,0.64
2023-03-29T03:05:18.045Z,0.61
2023-03-29T03:07:46.483Z,0.66
2023-03-29T03:10:15.322Z,0.81
2023-03-29T03:12:47.971Z,0.80
2023-03-29T03:15:16.407Z,0.87
2023-03-29T03:17:46.783Z,0.78
2023-03-29T03:20:15.165Z,0.79
2023-03-29T03:22:49.823Z,0.82
2023-03-29T03:25:21.404Z,0.78
2023-03-29T03:27:50.413Z,0.86
2023-03-29T03:30:21.055Z,0.83
2023-03-29T03:33:27.157Z,0.71
2023-03-29T03:36:11.456Z,0.78
2023-03-29T03:38:46.271Z,0.75
2023-03-29T03:41:14.840Z,0.67
2023-03-29T03:43:48.846Z,0.61
2023-03-29T03:46:18.144Z,0.55
2023-03-29T03:48:47.184Z,0.58
2023-03-29T03:51:23.178Z,0.55
2023-03-29T03:53:51.867Z,0.55
2023-03-29T03:56:35.728Z,0.68
2023-03-29T03:59:26.770Z,0.74
2023-03-29T04:02:08.698Z,0.80
2023-03-29T04:04:39.589Z,0.71
2023-03-29T04:07:13.247Z,0.68
2023-03-29T04:10:02.344Z,0.75
2023-03-29T04:12:51.682Z,0.78
2023-03-29T04:15:23.233Z,0.70
2023-03-29T04:18:00.045Z,0.79
2023-03-29T04:20:35.330Z,0.69
2023-03-29T04:23:03.857Z,0.68
2023-03-29T04:25:32.556Z,0.75
2023-03-29T04:28:23.059Z,0.69
2023-03-29T04:31:00.448Z,0.65
2023-03-29T04:33:47.533Z,0.70
2023-03-29T04:36:18.696Z,0.74
2023-03-29T04:38:48.170Z,0.70
2023-03-29T04:41:18.231Z,0.71
2023-03-29T04:44:03.552Z,0.81
2023-03-29T04:46:33.533Z,0.84
2023-03-29T04:49:17.992Z,0.83
2023-03-29T04:51:49.160Z,0.92
2023-03-29T04:54:22.899Z,0.97
2023-03-29T04:57:08.714Z,0.93
2023-03-29T04:59:56.674Z,0.94
2023-03-29T05:02:44.777Z,1.03
2023-03-29T05:05:14.114Z,1.12
2023-03-29T05:07:46.226Z,1.14
2023-03-29T05:10:15.116Z,1.11
2023-03-29T05:12:46.902Z,1.12
2023-03-29T05:15:15.262Z,1.20
2023-03-29T05:17:45.048Z,1.35
2023-03-29T05:20:14.771Z,1.31
2023-03-29T05:22:49.805Z,1.26
2023-03-29T05:25:44.057Z,1.25
2023-03-29T05:28:13.225Z,1.38
2023-03-29T05:30:43.087Z,1.36
2023-03-29T05:33:21.145Z,1.20
2023-03-29T05:35:49.499Z,1.28
2023-03-29T05:38:17.973Z,1.30
2023-03-29T05:40:46.513Z,1.38
2023-03-29T05:43:20.274Z,1.53
2023-03-29T05:45:49.018Z,1.46
2023-03-29T05:48:18.622Z,1.47
2023-03-29T05:50:51.301Z,1.59
2023-03-29T05:53:22.002Z,1.68
2023-03-29T05:55:51.624Z,1.74
2023-03-29T05:58:22.650Z,1.83
2023-03-29T06:00:51.474Z,1.67
2023-03-29T06:03:46.402Z,1.65
2023-03-29T06:06:18.333Z,1.70
2023-03-29T06:08:47.937Z,1.80
2023-03-29T06:11:37.337Z,1.87
2023-03-29T06:14:29.086Z,1.91
2023-03-29T06:17:10.910Z,2.03
2023-03-29T06:19:41.628Z,2.16
2023-03-29T06:22:10.206Z,2.33
2023-03-29T06:24:41.126Z,2.31
2023-03-29T06:27:15.757Z,2.47
2023-03-29T06:29:44.642Z,2.41
2023-03-29T06:32:18.693Z,2.36
2023-03-29T06:35:00.666Z,2.57
2023-03-29T06:37:34.819Z,2.90
2023-03-29T06:40:13.505Z,2.83
2023-03-29T06:42:46.670Z,2.94
2023-03-29T06:45:49.810Z,3.00
2023-03-29T06:48:27.653Z,3.11
2023-03-29T06:51:02.698Z,3.19
2023-03-29T06:53:33.094Z,3.23
2023-03-29T06:56:09.634Z,3.26
2023-03-29T06:58:49.996Z,3.36
2023-03-29T07:01:35.567Z,3.36
2023-03-29T07:04:21.223Z,3.48
2023-03-29T07:07:20.567Z,3.56
2023-03-29T07:09:55.730Z,3.67
2023-03-29T07:12:44.821Z,3.88
2023-03-29T07:15:13.863Z,3.68
2023-03-29T07:18:08.898Z,3.62
2023-03-29T07:20:39.285Z,3.52
2023-03-29T07:23:11.873Z,3.46
2023-03-29T07:25:44.025Z,3.43
2023-03-29T07:28:13.479Z,3.47
2023-03-29T07:30:45.293Z,3.48
2023-03-29T07:33:18.274Z,3.57
2023-03-29T07:39:15.850Z,3.69
2023-03-29T07:41:53.092Z,3.66
2023-03-29T07:44:21.992Z,3.75
2023-03-29T07:46:54.370Z,3.77
2023-03-29T07:53:13.976Z,3.86
2023-03-29T07:56:15.867Z,3.90
2023-03-29T07:59:09.798Z,3.89
2023-03-29T08:09:56.189Z,3.87
2023-03-29T08:13:02.642Z,3.94
2023-03-29T08:15:49.432Z,4.04
2023-03-29T08:18:34.606Z,4.20
2023-03-29T08:21:09.656Z,4.11
2023-03-29T08:23:42.973Z,4.05
2023-03-29T08:26:24.038Z,3.99
2023-03-29T08:28:53.461Z,3.96
2023-03-29T08:31:24.880Z,3.95
2023-03-29T08:34:00.685Z,3.89
2023-03-29T08:36:57.762Z,4.03
2023-03-29T08:39:41.961Z,4.08
2023-03-29T08:42:41.158Z,4.22
2023-03-29T08:45:13.500Z,4.21
2023-03-29T08:48:13.842Z,4.24
2023-03-29T08:51:02.687Z,4.34
2023-03-29T08:53:52.995Z,4.43
2023-03-29T08:56:44.697Z,4.42
2023-03-29T08:59:31.262Z,4.37
2023-03-29T09:02:02.634Z,4.40
2023-03-29T09:04:33.717Z,4.50
2023-03-29T09:07:21.376Z,4.45
2023-03-29T09:09:53.535Z,4.43
2023-03-29T09:12:52.971Z,4.39
2023-03-29T09:15:56.357Z,4.47
2023-03-29T09:18:57.663Z,4.64
2023-03-29T09:21:34.992Z,4.54
2023-03-29T09:24:45.804Z,4.62
2023-03-29T09:27:50.495Z,4.75
2023-03-29T09:30:43.275Z,4.71
2023-03-29T09:33:30.529Z,4.79
2023-03-29T09:36:47.184Z,4.73
2023-03-29T09:39:16.929Z,4.79
2023-03-29T09:42:04.341Z,4.81
2023-03-29T09:44:41.641Z,4.75
2023-03-29T09:47:23.312Z,4.86
2023-03-29T09:50:02.345Z,4.99
2023-03-29T09:52:33.547Z,5.07
2023-03-29T09:55:14.306Z,5.13
2023-03-29T09:58:18.348Z,5.21
2023-03-29T10:00:55.169Z,5.23
2023-03-29T10:03:29.935Z,5.34
2023-03-29T10:06:10.092Z,5.41
2023-03-29T10:08:50.631Z,5.40
2023-03-29T10:11:23.864Z,5.37
2023-03-29T10:13:57.636Z,5.35
2023-03-29T10:16:35.670Z,5.44
2023-03-29T10:19:23.259Z,5.65
2023-03-29T10:22:03.200Z,5.76
2023-03-29T10:24:31.792Z,5.84
2023-03-29T10:27:10.625Z,5.90
2023-03-29T10:29:41.262Z,5.94
2023-03-29T10:32:24.815Z,5.88
2023-03-29T10:34:54.188Z,5.78
2023-03-29T10:37:23.970Z,5.80
2023-03-29T10:39:53.485Z,5.90
2023-03-29T10:42:24.168Z,6.01
2023-03-29T10:44:55.128Z,6.04
2023-03-29T10:47:25.064Z,6.19
2023-03-29T10:49:56.969Z,6.13
2023-03-29T10:52:26.460Z,6.09
2023-03-29T10:54:55.688Z,6.13
2023-03-29T10:57:35.745Z,6.28
2023-03-29T11:00:08.114Z,6.33
2023-03-29T11:02:56.253Z,6.31
2023-03-29T11:05:47.047Z,6.30
2023-03-29T11:08:25.209Z,6.27
2023-03-29T11:11:32.983Z,6.17
2023-03-29T11:14:37.803Z,6.10
2023-03-29T11:17:43.748Z,6.14
2023-03-29T11:20:32.517Z,6.05
2023-03-29T11:23:30.418Z,6.03
2023-03-29T11:26:10.863Z,6.14
2023-03-29T11:28:47.812Z,6.11
2023-03-29T11:31:23.539Z,5.98
2023-03-29T11:34:12.523Z,5.98
2023-03-29T11:37:23.634Z,6.13
2023-03-29T11:40:11.197Z,6.45
2023-03-29T11:42:43.263Z,6.49
2023-03-29T11:45:34.633Z,6.34
2023-03-29T11:48:04.250Z,6.36
2023-03-29T11:50:42.213Z,6.39
2023-03-29T11:59:54.634Z,6.19
2023-03-29T12:02:36.898Z,6.13
2023-03-29T12:05:13.925Z,6.23
2023-03-29T12:07:46.713Z,6.18
2023-03-29T12:10:23.628Z,6.30
2023-03-29T12:13:01.948Z,6.39
2023-03-29T12:15:33.159Z,6.43
2023-03-29T12:21:53.822Z,6.39
2023-03-29T12:24:47.276Z,6.40
2023-03-29T12:27:36.208Z,6.29
2023-03-29T12:33:41.981Z,5.97
2023-03-29T12:36:41.213Z,5.84
2023-03-29T12:39:40.550Z,5.79
2023-03-29T12:42:27.360Z,5.78
2023-03-29T12:45:29.147Z,5.69
2023-03-29T12:47:57.874Z,5.64
2023-03-29T12:50:37.424Z,5.68
2023-03-29T12:53:22.695Z,5.63
2023-03-29T12:56:01.494Z,5.59
2023-03-29T12:58:38.874Z,5.56
2023-03-29T13:01:09.701Z,5.59
2023-03-29T13:03:47.982Z,5.76
2023-03-29T13:07:08.089Z,5.82
2023-03-29T13:09:59.496Z,5.74
2023-03-29T13:12:42.875Z,5.70
2023-03-29T13:15:16.793Z,5.62
2023-03-29T13:18:02.897Z,5.49
2023-03-29T13:20:56.510Z,5.47
2023-03-29T13:23:41.050Z,5.31
2023-03-29T13:26:27.250Z,5.23
2023-03-29T13:29:02.516Z,5.22
2023-03-29T13:31:44.440Z,5.15
2023-03-29T13:34:24.082Z,5.18
2023-03-29T13:37:17.955Z,5.15
2023-03-29T13:39:53.954Z,5.27
2023-03-29T13:42:35.637Z,5.25
2023-03-29T13:45:27.738Z,5.15
2023-03-29T13:48:23.106Z,5.23
2023-03-29T13:50:54.342Z,5.15
2023-03-29T13:53:30.229Z,4.96
2023-03-29T13:56:01.936Z,4.92
2023-03-29T13:58:48.252Z,5.09
2023-03-29T14:01:23.354Z,4.86
2023-03-29T14:03:55.779Z,4.76
2023-03-29T14:06:32.803Z,4.71
2023-03-29T14:09:04.990Z,4.94
2023-03-29T14:11:33.639Z,5.01
2023-03-29T14:14:03.363Z,5.01
2023-03-29T14:16:35.586Z,5.04
2023-03-29T14:19:06.723Z,5.09
2023-03-29T14:21:35.460Z,5.13
2023-03-29T14:24:05.886Z,5.11
2023-03-29T14:26:36.027Z,5.08
2023-03-29T14:29:09.959Z,5.08
2023-03-29T14:31:40.330Z,5.03
2023-03-29T14:34:16.660Z,4.94
2023-03-29T14:36:48.890Z,4.93
2023-03-29T14:39:19.502Z,4.87
2023-03-29T14:42:01.814Z,4.84
2023-03-29T14:44:37.228Z,4.82
2023-03-29T14:47:09.036Z,4.77
2023-03-29T14:49:44.497Z,4.75
2023-03-29T14:52:18.676Z,4.75
2023-03-29T14:54:51.284Z,4.79
2023-03-29T14:57:29.944Z,4.81
2023-03-29T15:00:01.885Z,4.59
2023-03-29T15:02:34.790Z,4.60
2023-03-29T15:05:05.375Z,4.55
2023-03-29T15:07:34.532Z,4.50
2023-03-29T15:10:05.685Z,4.36
2023-03-29T15:12:34.529Z,4.29
2023-03-29T15:15:04.520Z,4.29
2023-03-29T15:17:49.565Z,4.30
2023-03-29T15:20:39.225Z,4.30
2023-03-29T15:23:17.032Z,4.31
2023-03-29T15:25:52.121Z,4.28
2023-03-29T15:28:33.941Z,4.21
2023-03-29T15:31:08.103Z,4.19
2023-03-29T15:33:39.039Z,4.17
2023-03-29T15:36:08.708Z,4.13
2023-03-29T15:38:43.900Z,4.09
2023-03-29T15:41:14.196Z,4.06
2023-03-29T15:43:43.378Z,4.04
2023-03-29T15:46:12.349Z,3.92
2023-03-29T15:48:40.937Z,3.82
2023-03-29T15:51:12.760Z,3.81
2023-03-29T15:53:44.146Z,3.71
2023-03-29T15:56:16.394Z,3.64
2023-03-29T15:58:47.152Z,3.65
2023-03-29T16:01:23.748Z,3.67
2023-03-29T16:03:52.838Z,3.65
2023-03-29T16:06:23.959Z,3.59
2023-03-29T16:08:52.166Z,3.51
2023-03-29T16:11:21.207Z,3.47
2023-03-29T16:13:58.262Z,3.39
2023-03-29T16:16:27.307Z,3.30
2023-03-29T16:18:56.095Z,3.30
2023-03-29T16:21:24.631Z,3.18
2023-03-29T16:23:52.857Z,3.21
2023-03-29T16:26:32.252Z,3.09
2023-03-29T16:29:01.440Z,3.03
2023-03-29T16:31:31.653Z,2.97
2023-03-29T16:34:01.167Z,2.82
2023-03-29T16:36:30.958Z,2.75
2023-03-29T16:39:05.951Z,2.80
2023-03-29T16:41:36.977Z,2.80
2023-03-29T16:44:05.482Z,2.82
2023-03-29T16:46:33.945Z,2.84
2023-03-29T16:49:02.667Z,2.83
2023-03-29T16:51:34.419Z,2.81
2023-03-29T16:54:02.744Z,2.65
2023-03-29T16:56:31.041Z,2.57
2023-03-29T16:59:00.977Z,2.57
2023-03-29T17:01:30.150Z,2.48
2023-03-29T17:03:58.490Z,2.41
2023-03-29T17:06:28.131Z,2.37
2023-03-29T17:08:56.828Z,2.51
2023-03-29T17:11:26.454Z,2.39
2023-03-29T17:13:57.490Z,2.41
2023-03-29T17:16:25.754Z,2.43
2023-03-29T17:18:54.388Z,2.51
2023-03-29T17:21:22.760Z,2.51
2023-03-29T17:23:51.382Z,2.40
2023-03-29T17:26:19.599Z,2.48
2023-03-29T17:28:47.869Z,2.47
2023-03-29T17:31:17.120Z,2.45
2023-03-29T17:33:45.956Z,2.43
2023-03-29T17:36:14.436Z,2.53
2023-03-29T17:38:43.266Z,2.46
2023-03-29T17:41:11.934Z,2.47
2023-03-29T17:43:42.020Z,2.41
2023-03-29T17:46:10.487Z,2.45
2023-03-29T17:48:39.235Z,2.47
2023-03-29T17:51:07.498Z,2.45
2023-03-29T17:53:35.785Z,2.46
2023-03-29T17:56:04.421Z,2.42
2023-03-29T17:58:33.637Z,2.42
2023-03-29T18:01:09.320Z,2.45
2023-03-29T18:03:38.764Z,2.47
2023-03-29T18:06:08.984Z,2.52
2023-03-29T18:08:37.614Z,2.46
2023-03-29T18:11:07.345Z,2.52
2023-03-29T18:13:35.669Z,2.51
2023-03-29T18:16:13.920Z,2.51
2023-03-29T18:18:46.333Z,2.54
2023-03-29T18:21:15.515Z,2.53
2023-03-29T18:23:45.594Z,2.47
2023-03-29T18:26:15.446Z,2.41
2023-03-29T18:28:49.513Z,2.39
2023-03-29T18:31:19.959Z,2.38
2023-03-29T18:33:48.827Z,2.37
2023-03-29T18:36:17.899Z,2.35
2023-03-29T18:38:46.203Z,2.36
2023-03-29T18:41:14.515Z,2.37
2023-03-29T18:43:44.332Z,2.33
2023-03-29T18:46:12.582Z,2.31
2023-03-29T18:48:42.001Z,2.29
2023-03-29T18:51:11.657Z,2.29
2023-03-29T18:53:42.080Z,2.26
2023-03-29T18:56:11.571Z,2.22
2023-03-29T18:58:39.746Z,2.13
2023-03-29T19:01:09.754Z,2.13
2023-03-29T19:03:39.030Z,2.17
2023-03-29T19:06:07.980Z,2.14
2023-03-29T19:08:39.812Z,2.20
2023-03-29T19:11:10.346Z,2.23
2023-03-29T19:13:38.452Z,2.16
2023-03-29T19:16:07.226Z,2.22
2023-03-29T19:18:36.722Z,2.26
2023-03-29T19:21:04.855Z,2.25
2023-03-29T19:23:34.072Z,2.23
2023-03-29T19:26:03.690Z,2.23
2023-03-29T19:28:33.494Z,2.27
2023-03-29T19:31:02.114Z,2.10
2023-03-29T19:33:31.817Z,1.81
2023-03-29T19:36:00.768Z,1.78
2023-03-29T19:38:29.443Z,1.77
2023-03-29T19:40:58.288Z,1.75
2023-03-29T19:43:27.156Z,1.60
2023-03-29T19:45:55.957Z,1.61
2023-03-29T19:48:24.714Z,1.58
2023-03-29T19:50:53.560Z,1.57
2023-03-29T19:53:23.297Z,1.53
2023-03-29T19:55:52.500Z,1.49
2023-03-29T19:58:21.952Z,1.45
2023-03-29T20:00:53.343Z,1.49
2023-03-29T20:03:21.988Z,1.45
2023-03-29T20:05:50.952Z,1.30
2023-03-29T20:08:19.123Z,1.30
2023-03-29T20:10:47.652Z,1.32
2023-03-29T20:13:24.524Z,1.39
2023-03-29T20:16:00.098Z,1.36
2023-03-29T20:18:29.010Z,1.40
2023-03-29T20:20:58.386Z,1.38
2023-03-29T20:23:26.868Z,1.44
2023-03-29T20:25:57.440Z,1.55
2023-03-29T20:28:25.844Z,1.52
2023-03-29T20:30:54.551Z,1.48
2023-03-29T20:33:23.439Z,1.51
2023-03-29T20:35:51.796Z,1.45
2023-03-29T20:38:20.085Z,1.45
2023-03-29T20:40:49.094Z,1.42
2023-03-29T20:43:20.341Z,1.39
2023-03-29T20:45:53.652Z,1.34
2023-03-29T20:48:24.385Z,1.26
2023-03-29T20:50:52.679Z,1.22
2023-03-29T20:53:21.313Z,1.25
2023-03-29T20:55:49.643Z,1.22
2023-03-29T20:58:42.076Z,1.25
2023-03-29T21:01:12.404Z,1.29
2023-03-29T21:03:42.633Z,1.34
2023-03-29T21:06:14.130Z,1.38
2023-03-29T21:08:45.447Z,1.36
2023-03-29T21:11:16.401Z,1.37
2023-03-29T21:13:45.610Z,1.32
2023-03-29T21:16:14.081Z,1.42
2023-03-29T21:18:43.435Z,1.46
2023-03-29T21:21:11.931Z,1.37
2023-03-29T21:23:40.675Z,1.34
2023-03-29T21:26:09.526Z,1.40
2023-03-29T21:28:37.774Z,1.41
2023-03-29T21:31:06.726Z,1.47
2023-03-29T21:33:35.601Z,1.47
2023-03-29T21:36:04.341Z,1.42
2023-03-29T21:38:33.219Z,1.41
2023-03-29T21:41:02.810Z,1.38
2023-03-29T21:43:31.571Z,1.36
2023-03-29T21:46:00.206Z,1.34
2023-03-29T21:48:29.248Z,1.34
2023-03-29T21:50:57.698Z,1.30
2023-03-29T21:53:25.905Z,1.30
2023-03-29T21:55:54.193Z,1.28
2023-03-29T21:58:22.628Z,1.30
2023-03-29T22:00:52.221Z,1.38
2023-03-29T22:03:21.983Z,1.39
2023-03-29T22:05:59.839Z,1.36
2023-03-29T22:08:28.727Z,1.38
2023-03-29T22:10:57.205Z,1.44
2023-03-29T22:13:31.114Z,1.50
2023-03-29T22:16:00.579Z,1.43
2023-03-29T22:18:30.496Z,1.46
2023-03-29T22:21:00.313Z,1.54
2023-03-29T22:23:29.159Z,1.51
2023-03-29T22:25:57.494Z,1.47
2023-03-29T22:28:26.554Z,1.56
2023-03-29T22:30:55.040Z,1.49
2023-03-29T22:33:23.180Z,1.52
2023-03-29T22:35:51.731Z,1.54
2023-03-29T22:38:20.358Z,1.48
2023-03-29T22:40:52.877Z,1.43
2023-03-29T22:43:21.671Z,1.41
2023-03-29T22:45:50.082Z,1.50
2023-03-29T22:48:19.356Z,1.51
2023-03-29T22:50:47.710Z,1.53
2023-03-29T22:53:16.110Z,1.59
2023-03-29T22:55:45.960Z,1.63
2023-03-29T22:58:14.845Z,1.63
2023-03-29T23:00:43.348Z,1.68
2023-03-29T23:03:11.562Z,1.70
2023-03-29T23:05:39.797Z,1.73
2023-03-29T23:08:08.224Z,1.74
2023-03-29T23:10:42.626Z,1.64
2023-03-29T23:13:12.903Z,1.64
2023-03-29T23:15:42.987Z,1.57
2023-03-29T23:18:18.345Z,1.53
2023-03-29T23:20:48.706Z,1.50
2023-03-29T23:23:18.005Z,1.53
2023-03-29T23:25:47.582Z,1.50
2023-03-29T23:28:21.837Z,1.51
2023-03-29T23:31:02.917Z,1.54
2023-03-29T23:33:35.218Z,1.61
2023-03-29T23:36:05.649Z,1.65
2023-03-29T23:38:37.378Z,1.67
2023-03-29T23:41:08.653Z,1.61
2023-03-29T23:43:43.174Z,1.63
2023-03-29T23:46:15.335Z,1.61
2023-03-29T23:48:49.146Z,1.63
2023-03-29T23:51:18.716Z,1.59
2023-03-29T23:53:47.930Z,1.53
2023-03-29T23:56:21.605Z,1.52
2023-03-29T23:58:50.998Z,1.50
